Wetterdaten: Woche 12.06.17 - 18.06.17 (KW24)
Datum Zeit Temp. A. Feuchte A. Luftdruck Regen Wind Richtung Taupunkt Windchill Windben
12.06.2017 00:00 20,0 C 72 % 1013,8 hPa 0,0 l/m 0,8 km/h (0 Bft) O-NO 14,7 C 20,0 C 3,0 km/h (1 Bft)
12.06.2017 01:00 19,0 C 77 % 1013,9 hPa 0,0 l/m 0,0 km/h (0 Bft) O-NO 14,9 C 19,0 C 0,0 km/h (0 Bft)
12.06.2017 02:00 17,4 C 82 % 1013,9 hPa 0,0 l/m 0,0 km/h (0 Bft) O-NO 14,4 C 17,4 C 0,1 km/h (0 Bft)
12.06.2017 03:00 15,9 C 87 % 1013,6 hPa 0,0 l/m 0,0 km/h (0 Bft) O-NO 13,7 C 15,9 C 0,1 km/h (0 Bft)
12.06.2017 04:00 15,2 C 89 % 1013,3 hPa 0,0 l/m 0,0 km/h (0 Bft) O-NO 13,3 C 15,2 C 0,5 km/h (0 Bft)
12.06.2017 05:00 14,6 C 90 % 1013,5 hPa 0,0 l/m 0,0 km/h (0 Bft) O-NO 13,0 C 14,6 C 0,0 km/h (0 Bft)
12.06.2017 06:00 14,8 C 92 % 1013,7 hPa 0,0 l/m 0,0 km/h (0 Bft) O-NO 13,5 C 14,8 C 0,1 km/h (0 Bft)
12.06.2017 07:00 16,4 C 91 % 1013,7 hPa 0,0 l/m 0,1 km/h (0 Bft) O-NO 15,0 C 16,4 C 0,8 km/h (0 Bft)
12.06.2017 08:00 19,5 C 79 % 1013,8 hPa 0,0 l/m 2,4 km/h (1 Bft) O-NO 15,7 C 19,5 C 7,0 km/h (2 Bft)
12.06.2017 09:00 21,6 C 68 % 1014,1 hPa 0,0 l/m 4,7 km/h (1 Bft) O-NO 15,5 C 21,6 C 11,8 km/h (2 Bft)
12.06.2017 10:00 22,5 C 65 % 1014,4 hPa 0,0 l/m 6,1 km/h (2 Bft) O-NO 15,6 C 22,3 C 16,0 km/h (3 Bft)
12.06.2017 11:00 20,6 C 73 % 1015,1 hPa 0,0 l/m 4,5 km/h (1 Bft) O-NO 15,5 C 20,6 C 9,9 km/h (2 Bft)
12.06.2017 12:00 20,9 C 72 % 1015,4 hPa 0,0 l/m 5,0 km/h (1 Bft) O-NO 15,6 C 20,8 C 11,6 km/h (2 Bft)
12.06.2017 13:00 21,6 C 68 % 1015,5 hPa 0,0 l/m 6,1 km/h (2 Bft) O 15,6 C 21,6 C 15,3 km/h (3 Bft)
12.06.2017 14:00 22,6 C 63 % 1015,2 hPa 0,0 l/m 7,4 km/h (2 Bft) O-NO 15,1 C 22,2 C 17,6 km/h (3 Bft)
12.06.2017 15:00 22,7 C 60 % 1015,2 hPa 0,0 l/m 7,5 km/h (2 Bft) NO 14,4 C 22,3 C 19,3 km/h (3 Bft)
12.06.2017 16:00 22,8 C 59 % 1015,1 hPa 0,0 l/m 7,4 km/h (2 Bft) O 14,3 C 22,4 C 20,0 km/h (4 Bft)
12.06.2017 17:00 23,0 C 57 % 1015,0 hPa 0,0 l/m 6,3 km/h (2 Bft) O-NO 13,8 C 22,8 C 16,4 km/h (3 Bft)
12.06.2017 18:00 22,7 C 52 % 1015,0 hPa 0,0 l/m 4,6 km/h (1 Bft) O-NO 12,3 C 22,7 C 12,9 km/h (3 Bft)
12.06.2017 19:00 21,2 C 53 % 1015,2 hPa 0,0 l/m 3,3 km/h (1 Bft) O-NO 11,2 C 21,2 C 9,8 km/h (2 Bft)
12.06.2017 20:00 19,6 C 56 % 1015,5 hPa 0,0 l/m 1,3 km/h (1 Bft) O-SO 10,5 C 19,6 C 5,2 km/h (1 Bft)
12.06.2017 21:00 17,8 C 61 % 1015,9 hPa 0,0 l/m 0,8 km/h (0 Bft) O 10,1 C 17,8 C 3,1 km/h (1 Bft)
12.06.2017 22:00 15,1 C 72 % 1016,6 hPa 0,0 l/m 0,1 km/h (0 Bft) O 9,9 C 15,1 C 1,3 km/h (1 Bft)
12.06.2017 23:00 12,4 C 81 % 1016,8 hPa 0,0 l/m 0,1 km/h (0 Bft) O 9,3 C 12,4 C 1,0 km/h (0 Bft)
13.06.2017 00:00 11,3 C 85 % 1017,0 hPa 0,0 l/m 0,0 km/h (0 Bft) O 8,9 C 11,3 C 0,5 km/h (0 Bft)
13.06.2017 01:00 10,1 C 88 % 1017,2 hPa 0,0 l/m 0,1 km/h (0 Bft) O 8,2 C 10,1 C 1,2 km/h (1 Bft)
13.06.2017 02:00 9,2 C 90 % 1017,5 hPa 0,0 l/m 0,0 km/h (0 Bft) O 7,6 C 9,2 C 0,3 km/h (0 Bft)
13.06.2017 03:00 8,5 C 92 % 1017,3 hPa 0,0 l/m 0,0 km/h (0 Bft) O 7,3 C 8,5 C 0,4 km/h (0 Bft)
13.06.2017 04:00 8,1 C 92 % 1017,3 hPa 0,0 l/m 0,0 km/h (0 Bft) O 6,9 C 8,1 C 0,1 km/h (0 Bft)
13.06.2017 05:00 7,6 C 94 % 1017,6 hPa 0,0 l/m 0,0 km/h (0 Bft) O 6,6 C 7,6 C 0,0 km/h (0 Bft)
13.06.2017 06:00 7,6 C 94 % 1017,8 hPa 0,0 l/m 0,1 km/h (0 Bft) O 6,7 C 7,6 C 0,4 km/h (0 Bft)
13.06.2017 07:00 10,4 C 91 % 1017,9 hPa 0,0 l/m 0,3 km/h (0 Bft) O 8,9 C 10,4 C 1,9 km/h (1 Bft)
13.06.2017 08:00 15,5 C 72 % 1017,7 hPa 0,0 l/m 1,3 km/h (1 Bft) W 10,4 C 15,5 C 4,0 km/h (1 Bft)
13.06.2017 09:00 17,8 C 62 % 1017,6 hPa 0,0 l/m 1,8 km/h (1 Bft) NW 10,4 C 17,8 C 5,3 km/h (1 Bft)
13.06.2017 10:00 19,3 C 60 % 1017,3 hPa 0,0 l/m 2,8 km/h (1 Bft) N-NO 11,3 C 19,3 C 7,0 km/h (2 Bft)
13.06.2017 11:00 21,0 C 52 % 1017,0 hPa 0,0 l/m 4,1 km/h (1 Bft) NO 10,8 C 21,0 C 8,6 km/h (2 Bft)
13.06.2017 12:00 22,2 C 46 % 1016,8 hPa 0,0 l/m 3,7 km/h (1 Bft) NO 10,1 C 22,2 C 8,8 km/h (2 Bft)
13.06.2017 13:00 23,6 C 42 % 1016,5 hPa 0,0 l/m 4,1 km/h (1 Bft) O 9,9 C 23,6 C 10,3 km/h (2 Bft)
13.06.2017 14:00 24,6 C 38 % 1016,1 hPa 0,0 l/m 4,2 km/h (1 Bft) O 9,4 C 24,6 C 9,7 km/h (2 Bft)
13.06.2017 15:00 25,8 C 30 % 1015,7 hPa 0,0 l/m 3,9 km/h (1 Bft) O-NO 6,7 C 25,8 C 10,9 km/h (2 Bft)
13.06.2017 16:00 26,5 C 31 % 1015,3 hPa 0,0 l/m 3,8 km/h (1 Bft) O-NO 7,7 C 26,5 C 9,5 km/h (2 Bft)
13.06.2017 17:00 26,7 C 31 % 1015,2 hPa 0,0 l/m 2,7 km/h (1 Bft) NO 8,3 C 26,7 C 7,0 km/h (2 Bft)
13.06.2017 18:00 25,3 C 43 % 1015,1 hPa 0,0 l/m 2,8 km/h (1 Bft) W 11,7 C 25,3 C 5,6 km/h (2 Bft)
13.06.2017 19:00 23,3 C 51 % 1015,1 hPa 0,0 l/m 3,4 km/h (1 Bft) NW 12,6 C 23,3 C 8,8 km/h (2 Bft)
13.06.2017 20:00 20,6 C 57 % 1015,2 hPa 0,0 l/m 2,9 km/h (1 Bft) W 11,8 C 20,6 C 8,7 km/h (2 Bft)
13.06.2017 21:00 18,6 C 61 % 1016,1 hPa 0,0 l/m 1,8 km/h (1 Bft) NW 11,0 C 18,6 C 6,0 km/h (2 Bft)
13.06.2017 22:00 17,4 C 64 % 1016,9 hPa 0,0 l/m 0,5 km/h (0 Bft) NW 10,5 C 17,4 C 2,4 km/h (1 Bft)
13.06.2017 23:00 15,6 C 72 % 1016,8 hPa 0,0 l/m 0,0 km/h (0 Bft) NW 10,5 C 15,6 C 0,6 km/h (0 Bft)
14.06.2017 00:00 14,6 C 75 % 1017,0 hPa 0,0 l/m 0,1 km/h (0 Bft) NW 10,2 C 14,6 C 0,4 km/h (0 Bft)
14.06.2017 01:00 12,8 C 81 % 1017,2 hPa 0,0 l/m 0,0 km/h (0 Bft) NW 9,7 C 12,8 C 0,0 km/h (0 Bft)
14.06.2017 02:00 11,6 C 86 % 1016,8 hPa 0,0 l/m 0,0 km/h (0 Bft) NW 9,3 C 11,6 C 0,0 km/h (0 Bft)
14.06.2017 03:00 10,8 C 88 % 1016,7 hPa 0,0 l/m 0,0 km/h (0 Bft) NW 9,0 C 10,8 C 0,0 km/h (0 Bft)
14.06.2017 04:00 10,4 C 90 % 1016,8 hPa 0,0 l/m 0,0 km/h (0 Bft) NW 8,8 C 10,4 C 0,0 km/h (0 Bft)
14.06.2017 05:00 10,0 C 91 % 1016,9 hPa 0,0 l/m 0,0 km/h (0 Bft) NW 8,7 C 10,0 C 0,0 km/h (0 Bft)
14.06.2017 06:00 10,6 C 91 % 1016,8 hPa 0,0 l/m 0,0 km/h (0 Bft) NW 9,3 C 10,6 C 0,0 km/h (0 Bft)
14.06.2017 07:00 12,2 C 89 % 1017,0 hPa 0,0 l/m 0,0 km/h (0 Bft) NW 10,4 C 12,2 C 0,0 km/h (0 Bft)
14.06.2017 08:00 14,9 C 78 % 1017,0 hPa 0,0 l/m 0,1 km/h (0 Bft) W-NW 11,1 C 14,9 C 0,9 km/h (0 Bft)
14.06.2017 09:00 17,1 C 69 % 1016,8 hPa 0,0 l/m 1,5 km/h (1 Bft) NW 11,3 C 17,1 C 6,1 km/h (2 Bft)
14.06.2017 10:00 18,4 C 65 % 1016,7 hPa 0,0 l/m 2,6 km/h (1 Bft) S-SW 11,7 C 18,4 C 6,8 km/h (2 Bft)
14.06.2017 11:00 20,8 C 60 % 1016,5 hPa 0,0 l/m 3,2 km/h (1 Bft) S-SW 12,7 C 20,8 C 7,3 km/h (2 Bft)
14.06.2017 12:00 21,7 C 57 % 1016,2 hPa 0,0 l/m 3,2 km/h (1 Bft) NW 12,9 C 21,7 C 7,7 km/h (2 Bft)
14.06.2017 13:00 23,1 C 55 % 1015,7 hPa 0,0 l/m 3,7 km/h (1 Bft) W-SW 13,6 C 23,1 C 11,0 km/h (2 Bft)
14.06.2017 14:00 24,0 C 54 % 1015,5 hPa 0,0 l/m 2,8 km/h (1 Bft) W-NW 14,0 C 24,0 C 6,8 km/h (2 Bft)
14.06.2017 15:00 25,1 C 51 % 1015,0 hPa 0,0 l/m 3,0 km/h (1 Bft) NW 14,1 C 25,1 C 7,4 km/h (2 Bft)
14.06.2017 16:00 26,0 C 47 % 1014,5 hPa 0,0 l/m 2,8 km/h (1 Bft) S 13,7 C 26,0 C 7,0 km/h (2 Bft)
14.06.2017 17:00 25,8 C 48 % 1013,9 hPa 0,0 l/m 2,9 km/h (1 Bft) NW 14,0 C 25,8 C 9,0 km/h (2 Bft)
14.06.2017 18:00 25,3 C 49 % 1013,4 hPa 0,0 l/m 2,1 km/h (1 Bft) W 13,9 C 25,3 C 6,3 km/h (2 Bft)
14.06.2017 19:00 24,6 C 50 % 1013,5 hPa 0,0 l/m 0,9 km/h (0 Bft) W-NW 13,6 C 24,6 C 4,0 km/h (1 Bft)
14.06.2017 20:00 23,0 C 56 % 1013,3 hPa 0,0 l/m 0,5 km/h (0 Bft) W 13,7 C 23,0 C 2,3 km/h (1 Bft)
14.06.2017 21:00 20,4 C 67 % 1013,8 hPa 0,0 l/m 0,0 km/h (0 Bft) S-SW 14,0 C 20,4 C 0,4 km/h (0 Bft)
14.06.2017 22:00 17,6 C 77 % 1014,2 hPa 0,0 l/m 0,0 km/h (0 Bft) S-SW 13,5 C 17,6 C 0,0 km/h (0 Bft)
14.06.2017 23:00 15,6 C 83 % 1014,4 hPa 0,0 l/m 0,0 km/h (0 Bft) S-SW 12,7 C 15,6 C 0,0 km/h (0 Bft)
15.06.2017 00:00 14,8 C 85 % 1014,7 hPa 0,0 l/m 0,0 km/h (0 Bft) S-SW 12,4 C 14,8 C 0,1 km/h (0 Bft)
15.06.2017 01:00 13,9 C 88 % 1014,8 hPa 0,0 l/m 0,0 km/h (0 Bft) S-SW 11,9 C 13,9 C 0,3 km/h (0 Bft)
15.06.2017 02:00 13,2 C 89 % 1014,9 hPa 0,0 l/m 0,0 km/h (0 Bft) S-SW 11,4 C 13,2 C 0,3 km/h (0 Bft)
15.06.2017 03:00 12,6 C 91 % 1014,8 hPa 0,0 l/m 0,1 km/h (0 Bft) S-SW 11,1 C 12,6 C 0,9 km/h (0 Bft)
15.06.2017 04:00 12,1 C 92 % 1014,6 hPa 0,0 l/m 0,0 km/h (0 Bft) S-SW 10,8 C 12,1 C 0,0 km/h (0 Bft)
15.06.2017 05:00 11,7 C 93 % 1014,6 hPa 0,0 l/m 0,0 km/h (0 Bft) S-SW 10,6 C 11,7 C 0,0 km/h (0 Bft)
15.06.2017 06:00 11,8 C 94 % 1014,9 hPa 0,0 l/m 0,0 km/h (0 Bft) S-SW 10,9 C 11,8 C 0,1 km/h (0 Bft)
15.06.2017 07:00 14,7 C 90 % 1014,8 hPa 0,0 l/m 0,1 km/h (0 Bft) S-SW 13,0 C 14,7 C 0,5 km/h (0 Bft)
15.06.2017 08:00 20,1 C 75 % 1014,7 hPa 0,0 l/m 1,5 km/h (1 Bft) S-SW 15,5 C 20,1 C 4,1 km/h (1 Bft)
15.06.2017 09:00 22,4 C 64 % 1014,9 hPa 0,0 l/m 4,9 km/h (1 Bft) O-NO 15,2 C 22,4 C 11,8 km/h (2 Bft)
15.06.2017 10:00 23,6 C 59 % 1014,9 hPa 0,0 l/m 5,8 km/h (2 Bft) NO 15,1 C 23,6 C 13,7 km/h (3 Bft)
15.06.2017 11:00 25,4 C 51 % 1015,1 hPa 0,0 l/m 5,2 km/h (1 Bft) O-NO 14,6 C 25,3 C 10,9 km/h (2 Bft)
15.06.2017 12:00 26,0 C 49 % 1015,0 hPa 0,0 l/m 5,8 km/h (2 Bft) O-NO 14,3 C 26,0 C 12,0 km/h (2 Bft)
15.06.2017 13:00 27,3 C 42 % 1014,8 hPa 0,0 l/m 5,6 km/h (2 Bft) O-NO 13,1 C 27,3 C 14,6 km/h (3 Bft)
15.06.2017 14:00 28,0 C 39 % 1014,7 hPa 0,0 l/m 6,5 km/h (2 Bft) O-NO 12,9 C 27,9 C 15,0 km/h (3 Bft)
15.06.2017 15:00 28,5 C 41 % 1014,0 hPa 0,0 l/m 6,0 km/h (2 Bft) NO 13,9 C 28,4 C 15,7 km/h (3 Bft)
15.06.2017 16:00 28,5 C 44 % 1013,7 hPa 0,0 l/m 3,6 km/h (1 Bft) NO 15,1 C 28,5 C 10,7 km/h (2 Bft)
15.06.2017 17:00 28,0 C 48 % 1013,6 hPa 0,0 l/m 4,2 km/h (1 Bft) NO 15,9 C 28,0 C 10,9 km/h (2 Bft)
15.06.2017 18:00 26,9 C 51 % 1013,1 hPa 0,0 l/m 1,8 km/h (1 Bft) O-NO 15,9 C 26,9 C 5,6 km/h (2 Bft)
15.06.2017 19:00 23,9 C 68 % 1013,6 hPa 1,3 l/m 1,9 km/h (1 Bft) S 17,4 C 23,9 C 5,0 km/h (1 Bft)
15.06.2017 20:00 18,8 C 90 % 1015,0 hPa 4,3 l/m 4,9 km/h (1 Bft) NO 17,1 C 18,6 C 11,1 km/h (2 Bft)
15.06.2017 21:00 17,0 C 93 % 1014,5 hPa 0,0 l/m 4,2 km/h (1 Bft) O-NO 16,0 C 16,9 C 9,8 km/h (2 Bft)
15.06.2017 22:00 16,6 C 94 % 1014,5 hPa 0,3 l/m 1,0 km/h (0 Bft) O-NO 15,6 C 16,6 C 4,1 km/h (1 Bft)
15.06.2017 23:00 16,0 C 95 % 1015,2 hPa 0,0 l/m 0,3 km/h (0 Bft) NO 15,1 C 16,0 C 2,3 km/h (1 Bft)
16.06.2017 00:00 15,7 C 95 % 1015,6 hPa 0,0 l/m 0,3 km/h (0 Bft) O-NO 14,9 C 15,7 C 1,1 km/h (1 Bft)
16.06.2017 01:00 15,3 C 96 % 1015,5 hPa 0,0 l/m 0,1 km/h (0 Bft) O-NO 14,7 C 15,3 C 1,6 km/h (1 Bft)
16.06.2017 02:00 16,6 C 96 % 1015,8 hPa 0,0 l/m 1,0 km/h (0 Bft) O 16,0 C 16,6 C 4,5 km/h (1 Bft)
16.06.2017 03:00 16,5 C 95 % 1016,3 hPa 0,0 l/m 0,5 km/h (0 Bft) O-SO 15,8 C 16,5 C 3,2 km/h (1 Bft)
16.06.2017 04:00 15,7 C 92 % 1016,4 hPa 0,0 l/m 0,7 km/h (0 Bft) O-SO 14,4 C 15,7 C 3,6 km/h (1 Bft)
16.06.2017 05:00 14,7 C 91 % 1016,8 hPa 0,0 l/m 0,4 km/h (0 Bft) S-SO 13,3 C 14,7 C 2,4 km/h (1 Bft)
16.06.2017 06:00 14,5 C 90 % 1017,3 hPa 0,0 l/m 1,1 km/h (1 Bft) O-NO 12,9 C 14,5 C 4,4 km/h (1 Bft)
16.06.2017 07:00 15,3 C 88 % 1017,5 hPa 0,0 l/m 2,6 km/h (1 Bft) O-NO 13,2 C 15,3 C 7,2 km/h (2 Bft)
16.06.2017 08:00 16,0 C 85 % 1017,9 hPa 0,0 l/m 3,8 km/h (1 Bft) O-NO 13,5 C 16,0 C 10,3 km/h (2 Bft)
16.06.2017 09:00 17,5 C 77 % 1018,1 hPa 0,0 l/m 6,2 km/h (2 Bft) O-NO 13,3 C 17,3 C 14,6 km/h (3 Bft)
16.06.2017 10:00 18,7 C 66 % 1018,4 hPa 0,0 l/m 6,2 km/h (2 Bft) O-NO 12,3 C 18,5 C 16,4 km/h (3 Bft)
16.06.2017 11:00 20,0 C 50 % 1018,8 hPa 0,0 l/m 7,3 km/h (2 Bft) O-NO 9,1 C 19,5 C 15,8 km/h (3 Bft)
16.06.2017 12:00 20,5 C 48 % 1019,0 hPa 0,0 l/m 7,2 km/h (2 Bft) O-NO 9,0 C 20,1 C 15,5 km/h (3 Bft)
16.06.2017 13:00 21,0 C 47 % 1019,1 hPa 0,0 l/m 8,5 km/h (2 Bft) NO 9,1 C 20,2 C 20,8 km/h (4 Bft)
16.06.2017 14:00 21,2 C 44 % 1019,4 hPa 0,0 l/m 7,7 km/h (2 Bft) NO 8,6 C 20,7 C 19,2 km/h (3 Bft)
16.06.2017 15:00 21,8 C 45 % 1019,5 hPa 0,0 l/m 5,9 km/h (2 Bft) O-NO 9,2 C 21,7 C 16,8 km/h (3 Bft)
16.06.2017 16:00 21,8 C 46 % 1019,6 hPa 0,0 l/m 5,8 km/h (2 Bft) O-NO 9,6 C 21,7 C 16,0 km/h (3 Bft)
16.06.2017 17:00 21,3 C 48 % 1019,8 hPa 0,0 l/m 5,7 km/h (2 Bft) O-SO 9,8 C 21,2 C 15,0 km/h (3 Bft)
16.06.2017 18:00 19,8 C 53 % 1020,1 hPa 0,0 l/m 5,0 km/h (1 Bft) S-SO 9,8 C 19,7 C 13,8 km/h (3 Bft)
16.06.2017 19:00 18,4 C 58 % 1020,8 hPa 0,0 l/m 3,4 km/h (1 Bft) NO 9,9 C 18,4 C 9,8 km/h (2 Bft)
16.06.2017 20:00 17,0 C 59 % 1021,4 hPa 0,0 l/m 2,6 km/h (1 Bft) O-NO 9,0 C 17,0 C 8,3 km/h (2 Bft)
16.06.2017 21:00 15,9 C 63 % 1022,1 hPa 0,0 l/m 0,8 km/h (0 Bft) O-NO 8,7 C 15,9 C 3,9 km/h (1 Bft)
16.06.2017 22:00 14,4 C 70 % 1022,8 hPa 0,0 l/m 0,4 km/h (0 Bft) O-SO 8,9 C 14,4 C 2,5 km/h (1 Bft)
16.06.2017 23:00 13,3 C 75 % 1023,2 hPa 0,0 l/m 0,2 km/h (0 Bft) O 8,9 C 13,3 C 1,6 km/h (1 Bft)
17.06.2017 00:00 12,3 C 79 % 1023,3 hPa 0,0 l/m 0,1 km/h (0 Bft) O 8,8 C 12,3 C 1,3 km/h (1 Bft)
17.06.2017 01:00 10,9 C 85 % 1023,3 hPa 0,0 l/m 0,0 km/h (0 Bft) O 8,4 C 10,9 C 0,3 km/h (0 Bft)
17.06.2017 02:00 9,7 C 89 % 1023,4 hPa 0,0 l/m 0,0 km/h (0 Bft) O 8,0 C 9,7 C 0,1 km/h (0 Bft)
17.06.2017 03:00 9,0 C 92 % 1023,7 hPa 0,0 l/m 0,0 km/h (0 Bft) O 7,7 C 9,0 C 0,4 km/h (0 Bft)
17.06.2017 04:00 8,4 C 92 % 1023,8 hPa 0,0 l/m 0,0 km/h (0 Bft) O 7,2 C 8,4 C 0,3 km/h (0 Bft)
17.06.2017 05:00 7,7 C 94 % 1024,3 hPa 0,0 l/m 0,0 km/h (0 Bft) O 6,8 C 7,7 C 0,0 km/h (0 Bft)
17.06.2017 06:00 7,8 C 95 % 1024,6 hPa 0,0 l/m 0,0 km/h (0 Bft) O 7,0 C 7,8 C 0,3 km/h (0 Bft)
17.06.2017 07:00 10,3 C 92 % 1024,8 hPa 0,0 l/m 0,4 km/h (0 Bft) O 9,1 C 10,3 C 1,6 km/h (1 Bft)
17.06.2017 08:00 14,5 C 75 % 1024,7 hPa 0,0 l/m 2,3 km/h (1 Bft) NW 10,0 C 14,5 C 6,4 km/h (2 Bft)
17.06.2017 09:00 16,4 C 66 % 1024,7 hPa 0,0 l/m 2,1 km/h (1 Bft) N-NO 9,9 C 16,4 C 5,9 km/h (2 Bft)
17.06.2017 10:00 16,9 C 63 % 1024,7 hPa 0,0 l/m 2,8 km/h (1 Bft) O-NO 9,8 C 16,9 C 6,7 km/h (2 Bft)
17.06.2017 11:00 19,3 C 52 % 1024,5 hPa 0,0 l/m 3,2 km/h (1 Bft) N 9,3 C 19,3 C 6,9 km/h (2 Bft)
17.06.2017 12:00 20,2 C 49 % 1024,5 hPa 0,0 l/m 3,5 km/h (1 Bft) O-NO 9,2 C 20,2 C 8,1 km/h (2 Bft)
17.06.2017 13:00 20,8 C 50 % 1024,4 hPa 0,0 l/m 3,0 km/h (1 Bft) W-NW 9,9 C 20,8 C 8,6 km/h (2 Bft)
17.06.2017 14:00 20,1 C 53 % 1024,5 hPa 0,0 l/m 2,5 km/h (1 Bft) N-NO 10,1 C 20,1 C 6,4 km/h (2 Bft)
17.06.2017 15:00 20,1 C 54 % 1024,4 hPa 0,0 l/m 2,0 km/h (1 Bft) O-SO 10,6 C 20,1 C 6,3 km/h (2 Bft)
17.06.2017 16:00 21,2 C 54 % 1024,2 hPa 0,0 l/m 3,5 km/h (1 Bft) NO 11,5 C 21,2 C 9,1 km/h (2 Bft)
17.06.2017 17:00 21,3 C 54 % 1024,2 hPa 0,0 l/m 2,5 km/h (1 Bft) O-NO 11,5 C 21,3 C 6,5 km/h (2 Bft)
17.06.2017 18:00 19,6 C 58 % 1024,1 hPa 0,0 l/m 3,4 km/h (1 Bft) N 11,3 C 19,6 C 9,3 km/h (2 Bft)
17.06.2017 19:00 18,4 C 63 % 1024,1 hPa 0,0 l/m 2,1 km/h (1 Bft) NW 11,3 C 18,4 C 6,0 km/h (2 Bft)
17.06.2017 20:00 17,9 C 66 % 1024,1 hPa 0,0 l/m 0,4 km/h (0 Bft) S-SW 11,4 C 17,9 C 2,4 km/h (1 Bft)
17.06.2017 21:00 17,2 C 69 % 1024,3 hPa 0,0 l/m 0,5 km/h (0 Bft) W-SW 11,4 C 17,2 C 2,8 km/h (1 Bft)
17.06.2017 22:00 16,7 C 72 % 1024,5 hPa 0,0 l/m 0,3 km/h (0 Bft) W 11,6 C 16,7 C 1,9 km/h (1 Bft)
17.06.2017 23:00 16,1 C 76 % 1024,8 hPa 0,0 l/m 0,0 km/h (0 Bft) W 11,9 C 16,1 C 0,2 km/h (0 Bft)
18.06.2017 00:00 15,8 C 78 % 1024,7 hPa 0,0 l/m 0,0 km/h (0 Bft) W 11,9 C 15,8 C 0,4 km/h (0 Bft)
18.06.2017 01:00 15,2 C 81 % 1024,4 hPa 0,0 l/m 0,0 km/h (0 Bft) W 12,0 C 15,2 C 0,0 km/h (0 Bft)
18.06.2017 02:00 15,1 C 81 % 1024,1 hPa 0,0 l/m 0,4 km/h (0 Bft) W-SW 11,9 C 15,1 C 2,9 km/h (1 Bft)
18.06.2017 03:00 15,0 C 83 % 1023,7 hPa 0,0 l/m 0,2 km/h (0 Bft) SW 12,0 C 15,0 C 1,6 km/h (1 Bft)
18.06.2017 04:00 14,9 C 84 % 1023,4 hPa 0,0 l/m 0,5 km/h (0 Bft) SW 12,1 C 14,9 C 2,5 km/h (1 Bft)
18.06.2017 05:00 14,7 C 85 % 1023,2 hPa 0,0 l/m 0,7 km/h (0 Bft) W-SW 12,1 C 14,7 C 3,7 km/h (1 Bft)
18.06.2017 06:00 14,6 C 85 % 1023,1 hPa 0,0 l/m 1,0 km/h (0 Bft) SW 12,1 C 14,6 C 4,1 km/h (1 Bft)
18.06.2017 07:00 14,8 C 85 % 1022,9 hPa 0,0 l/m 1,0 km/h (0 Bft) W-SW 12,3 C 14,8 C 3,9 km/h (1 Bft)
18.06.2017 08:00 15,6 C 82 % 1023,0 hPa 0,0 l/m 3,1 km/h (1 Bft) W-NW 12,6 C 15,6 C 8,3 km/h (2 Bft)
18.06.2017 09:00 17,6 C 74 % 1023,0 hPa 0,0 l/m 4,0 km/h (1 Bft) W 12,8 C 17,6 C 10,9 km/h (2 Bft)
18.06.2017 10:00 19,1 C 63 % 1022,6 hPa 0,0 l/m 4,3 km/h (1 Bft) W 11,9 C 19,1 C 12,2 km/h (2 Bft)
18.06.2017 11:00 20,4 C 58 % 1022,3 hPa 0,0 l/m 5,2 km/h (1 Bft) NW 11,9 C 20,3 C 11,8 km/h (2 Bft)
18.06.2017 12:00 21,2 C 53 % 1022,1 hPa 0,0 l/m 4,9 km/h (1 Bft) NW 11,2 C 21,2 C 12,2 km/h (2 Bft)
18.06.2017 13:00 22,4 C 47 % 1021,7 hPa 0,0 l/m 4,8 km/h (1 Bft) W-NW 10,6 C 22,4 C 12,8 km/h (3 Bft)
18.06.2017 14:00 23,3 C 44 % 1021,2 hPa 0,0 l/m 4,4 km/h (1 Bft) NW 10,5 C 23,3 C 11,5 km/h (2 Bft)
18.06.2017 15:00 24,1 C 44 % 1020,7 hPa 0,0 l/m 4,3 km/h (1 Bft) S-SW 11,0 C 24,1 C 11,4 km/h (2 Bft)
18.06.2017 16:00 24,5 C 43 % 1020,5 hPa 0,0 l/m 4,6 km/h (1 Bft) W-NW 11,1 C 24,5 C 12,1 km/h (2 Bft)
18.06.2017 17:00 24,5 C 41 % 1020,3 hPa 0,0 l/m 4,4 km/h (1 Bft) W-NW 10,4 C 24,5 C 11,8 km/h (2 Bft)
18.06.2017 18:00 24,0 C 41 % 1019,9 hPa 0,0 l/m 4,3 km/h (1 Bft) S-SW 10,0 C 24,0 C 11,7 km/h (2 Bft)
18.06.2017 19:00 22,9 C 44 % 1019,8 hPa 0,0 l/m 4,5 km/h (1 Bft) NW 10,1 C 22,9 C 12,8 km/h (3 Bft)
18.06.2017 20:00 21,5 C 49 % 1019,9 hPa 0,0 l/m 2,8 km/h (1 Bft) W 10,2 C 21,5 C 9,3 km/h (2 Bft)
18.06.2017 21:00 19,9 C 54 % 1020,2 hPa 0,0 l/m 1,1 km/h (1 Bft) W-SW 10,4 C 19,9 C 4,9 km/h (1 Bft)
18.06.2017 22:00 17,7 C 64 % 1020,7 hPa 0,0 l/m 0,3 km/h (0 Bft) W-NW 10,7 C 17,7 C 2,3 km/h (1 Bft)
18.06.2017 23:00 15,3 C 73 % 1021,0 hPa 0,0 l/m 0,1 km/h (0 Bft) W 10,5 C 15,3 C 0,8 km/h (0 Bft)
Min-Datum _ 13.06.17 13.06.17 15.06.17 - 18.06.17 - 13.06.17 13.06.17 18.06.17
_ Min-Zeit 06:10 15:10 18:45 - 23:10 - 15:10 06:10 23:10
Minimum _ 7,3 C 27 % 1012,8 hPa - 0,0 km/h (0 Bft) - 5,0 C 7,3 C 0,0 km/h (0 Bft)
Max-Datum _ 15.06.17 16.06.17 17.06.17 15.06.17 16.06.17 - 15.06.17 15.06.17 12.06.17
_ Max-Zeit 16:15 02:05 07:20 20:00 11:57 - 19:45 16:15 16:20
Maximum _ 28,9 C 98 % 1025,0 hPa 4,3 l/m 11,3 km/h
O-NO (2 Bft)
- 18,3 C 28,9 C 29,0 km/h
NO (5 Bft)
Durchschnitt _ 18,1 C 69 % 1018,1 hPa #5,8 l/m 2,3 km/h (1 Bft) O 11,6 C 18,1 C 6,2 km/h (2 Bft)